createdAt,value
2022-12-16T00:01:35.228Z,6.92
2022-12-16T00:04:04.198Z,6.97
2022-12-16T00:06:33.952Z,7.26
2022-12-16T00:09:01.223Z,6.97
2022-12-16T00:11:28.585Z,7.19
2022-12-16T00:13:58.015Z,7.17
2022-12-16T00:16:24.887Z,7.21
2022-12-16T00:18:51.828Z,7.38
2022-12-16T00:21:20.448Z,7.15
2022-12-16T00:23:47.727Z,7.56
2022-12-16T00:26:14.807Z,7.70
2022-12-16T00:28:41.584Z,7.58
2022-12-16T00:31:08.383Z,7.58
2022-12-16T00:33:35.391Z,7.64
2022-12-16T00:36:03.020Z,7.76
2022-12-16T00:38:29.641Z,7.64
2022-12-16T00:40:56.313Z,7.67
2022-12-16T00:43:23.197Z,7.80
2022-12-16T00:45:50.539Z,7.76
2022-12-16T00:48:19.383Z,7.91
2022-12-16T00:51:11.692Z,7.86
2022-12-16T00:53:38.444Z,7.68
2022-12-16T00:56:13.231Z,7.98
2022-12-16T00:58:40.374Z,7.77
2022-12-16T01:01:08.101Z,7.70
2022-12-16T01:03:35.841Z,7.64
2022-12-16T01:06:12.003Z,7.99
2022-12-16T01:08:38.860Z,8.03
2022-12-16T01:11:06.049Z,7.94
2022-12-16T01:13:33.505Z,7.71
2022-12-16T01:16:01.826Z,7.78
2022-12-16T01:18:28.531Z,7.84
2022-12-16T01:20:55.194Z,7.76
2022-12-16T01:23:22.582Z,8.05
2022-12-16T01:25:52.949Z,8.16
2022-12-16T01:28:19.543Z,8.11
2022-12-16T01:30:46.194Z,8.03
2022-12-16T01:33:13.452Z,7.99
2022-12-16T01:35:56.237Z,8.05
2022-12-16T01:38:23.308Z,8.30
2022-12-16T01:40:49.932Z,8.15
2022-12-16T01:43:18.948Z,7.99
2022-12-16T01:45:48.364Z,7.91
2022-12-16T01:48:34.235Z,8.20
2022-12-16T01:51:10.182Z,8.29
2022-12-16T01:53:42.552Z,8.07
2022-12-16T01:56:10.982Z,8.03
2022-12-16T01:58:41.216Z,8.10
2022-12-16T02:01:09.236Z,8.12
2022-12-16T02:03:39.834Z,8.40
2022-12-16T02:06:08.998Z,8.19
2022-12-16T02:08:36.014Z,8.40
2022-12-16T02:11:14.866Z,8.42
2022-12-16T02:13:41.646Z,8.45
2022-12-16T02:16:17.752Z,8.46
2022-12-16T02:18:54.064Z,8.46
2022-12-16T02:22:15.125Z,8.50
2022-12-16T02:25:13.530Z,8.41
2022-12-16T02:27:55.032Z,8.36
2022-12-16T02:30:28.785Z,8.35
2022-12-16T02:32:58.488Z,8.61
2022-12-16T02:35:53.092Z,8.60
2022-12-16T02:38:41.334Z,8.49
2022-12-16T02:41:17.738Z,8.65
2022-12-16T02:43:58.466Z,8.77
2022-12-16T02:46:28.238Z,8.66
2022-12-16T02:48:55.640Z,8.65
2022-12-16T02:51:25.899Z,8.45
2022-12-16T02:53:55.721Z,8.32
2022-12-16T02:56:49.907Z,8.71
2022-12-16T02:59:58.383Z,8.67
2022-12-16T03:02:27.922Z,8.43
2022-12-16T03:05:34.570Z,8.74
2022-12-16T03:08:06.697Z,8.67
2022-12-16T03:10:40.208Z,8.68
2022-12-16T03:13:08.834Z,8.63
2022-12-16T03:15:36.705Z,8.56
2022-12-16T03:18:06.341Z,8.72
2022-12-16T03:20:39.002Z,8.85
2022-12-16T03:23:13.192Z,8.59
2022-12-16T03:25:44.184Z,8.89
2022-12-16T03:28:27.154Z,8.81
2022-12-16T03:31:05.206Z,8.68
2022-12-16T03:33:40.605Z,8.69
2022-12-16T03:36:17.183Z,8.62
2022-12-16T03:38:45.823Z,8.70
2022-12-16T03:41:14.702Z,8.92
2022-12-16T03:43:44.324Z,8.96
2022-12-16T03:46:13.159Z,8.82
2022-12-16T03:48:47.401Z,8.98
2022-12-16T03:51:14.177Z,8.76
2022-12-16T03:53:41.213Z,8.75
2022-12-16T03:56:08.333Z,8.74
2022-12-16T03:58:35.536Z,8.83
2022-12-16T04:01:02.236Z,8.74
2022-12-16T04:03:29.020Z,8.92
2022-12-16T04:05:55.725Z,8.82
2022-12-16T04:08:22.521Z,8.75
2022-12-16T04:11:10.805Z,8.89
2022-12-16T04:13:56.956Z,8.91
2022-12-16T04:16:46.193Z,9.01
2022-12-16T04:19:40.108Z,8.78
2022-12-16T04:22:42.854Z,9.11
2022-12-16T04:25:25.063Z,9.07
2022-12-16T04:27:51.649Z,8.98
2022-12-16T04:30:20.328Z,9.07
2022-12-16T04:33:09.387Z,9.05
2022-12-16T04:35:54.471Z,9.01
2022-12-16T04:38:39.668Z,8.88
2022-12-16T04:41:24.796Z,8.78
2022-12-16T04:44:10.275Z,8.96
2022-12-16T04:46:55.882Z,8.99
2022-12-16T04:49:41.305Z,9.08
2022-12-16T04:52:26.480Z,9.02
2022-12-16T04:55:11.831Z,8.97
2022-12-16T04:57:57.416Z,9.00
2022-12-16T05:00:43.451Z,9.03
2022-12-16T05:03:29.449Z,9.05
2022-12-16T05:06:16.296Z,8.76
2022-12-16T05:09:01.419Z,8.67
2022-12-16T05:11:46.555Z,8.74
2022-12-16T05:14:31.541Z,8.86
2022-12-16T05:17:16.654Z,8.82
2022-12-16T05:20:01.732Z,8.94
2022-12-16T05:22:46.981Z,8.95
2022-12-16T05:25:32.296Z,8.89
2022-12-16T05:28:17.468Z,8.98
2022-12-16T05:31:02.636Z,8.82
2022-12-16T05:33:47.725Z,8.85
2022-12-16T05:36:32.669Z,8.83
2022-12-16T05:39:17.675Z,8.88
2022-12-16T05:42:03.051Z,8.84
2022-12-16T05:44:48.084Z,8.88
2022-12-16T05:47:33.284Z,8.79
2022-12-16T05:50:18.449Z,8.81
2022-12-16T05:53:14.389Z,8.87
2022-12-16T05:56:00.494Z,8.96
2022-12-16T05:58:49.568Z,8.91
2022-12-16T06:01:35.037Z,8.91
2022-12-16T06:04:20.052Z,8.85
2022-12-16T06:07:05.728Z,8.86
2022-12-16T06:09:56.324Z,8.87
2022-12-16T06:12:46.849Z,8.84
2022-12-16T06:15:32.019Z,8.58
2022-12-16T06:18:16.945Z,8.86
2022-12-16T06:21:02.647Z,9.00
2022-12-16T06:23:47.906Z,9.00
2022-12-16T06:26:33.683Z,8.96
2022-12-16T06:29:18.842Z,9.04
2022-12-16T06:32:04.081Z,8.86
2022-12-16T06:34:49.461Z,8.86
2022-12-16T06:37:34.850Z,9.09
2022-12-16T06:40:20.593Z,9.00
2022-12-16T06:43:05.989Z,9.11
2022-12-16T06:45:51.337Z,9.15
2022-12-16T06:48:36.201Z,9.15
2022-12-16T06:51:21.324Z,9.07
2022-12-16T06:54:06.543Z,9.23
2022-12-16T06:56:51.636Z,9.08
2022-12-16T06:59:36.942Z,9.34
2022-12-16T07:02:22.113Z,9.44
2022-12-16T07:05:07.623Z,9.14
2022-12-16T07:07:52.906Z,9.43
2022-12-16T07:10:38.023Z,9.29
2022-12-16T07:13:23.102Z,9.47
2022-12-16T07:16:08.167Z,9.24
2022-12-16T07:18:53.598Z,9.39
2022-12-16T07:21:39.018Z,9.58
2022-12-16T07:24:24.480Z,9.53
2022-12-16T07:27:09.416Z,9.34
2022-12-16T07:29:54.679Z,9.68
2022-12-16T07:32:39.738Z,9.78
2022-12-16T07:35:25.289Z,9.72
2022-12-16T07:38:10.909Z,9.78
2022-12-16T07:40:56.714Z,9.93
2022-12-16T07:43:41.853Z,9.88
2022-12-16T07:46:28.594Z,10.11
2022-12-16T07:49:14.194Z,10.10
2022-12-16T07:51:59.483Z,10.10
2022-12-16T07:54:44.517Z,10.16
2022-12-16T07:57:29.516Z,10.08
2022-12-16T08:00:14.593Z,10.15
2022-12-16T08:02:59.526Z,10.16
2022-12-16T08:05:46.579Z,10.25
2022-12-16T08:08:51.684Z,9.94
2022-12-16T08:11:38.023Z,10.06
2022-12-16T08:14:23.477Z,10.24
2022-12-16T08:17:08.938Z,10.56
2022-12-16T08:19:54.313Z,10.60
2022-12-16T08:22:39.555Z,10.23
2022-12-16T08:25:24.814Z,10.46
2022-12-16T08:28:15.970Z,10.82
2022-12-16T08:31:08.861Z,10.90
2022-12-16T08:33:54.318Z,10.95
2022-12-16T08:36:41.457Z,10.84
2022-12-16T08:39:26.588Z,10.62
2022-12-16T08:42:11.810Z,10.48
2022-12-16T08:45:07.506Z,10.33
2022-12-16T08:47:52.411Z,10.58
2022-12-16T08:50:37.522Z,10.64
2022-12-16T08:53:22.575Z,10.71
2022-12-16T08:56:07.691Z,10.87
2022-12-16T08:58:54.520Z,11.02
2022-12-16T09:01:41.087Z,11.23
2022-12-16T09:04:26.351Z,11.39
2022-12-16T09:07:11.862Z,11.51
2022-12-16T09:09:56.879Z,11.42
2022-12-16T09:12:42.172Z,11.62
2022-12-16T09:15:27.918Z,11.72
2022-12-16T09:18:15.994Z,11.65
2022-12-16T09:21:01.662Z,11.51
2022-12-16T09:23:46.763Z,11.67
2022-12-16T09:26:32.091Z,11.72
2022-12-16T09:29:17.429Z,11.59
2022-12-16T09:32:02.781Z,11.58
2022-12-16T09:34:47.889Z,11.56
2022-12-16T09:37:33.093Z,11.18
2022-12-16T09:40:18.343Z,11.42
2022-12-16T09:43:12.661Z,11.64
2022-12-16T09:46:22.854Z,11.66
2022-12-16T09:49:24.177Z,11.81
2022-12-16T09:52:16.534Z,11.75
2022-12-16T09:55:05.375Z,11.95
2022-12-16T09:57:53.958Z,11.78
2022-12-16T10:00:43.961Z,11.91
2022-12-16T10:03:41.543Z,11.84
2022-12-16T10:06:29.920Z,11.95
2022-12-16T10:09:29.261Z,11.90
2022-12-16T10:12:35.073Z,12.04
2022-12-16T10:15:36.827Z,12.20
2022-12-16T10:18:30.121Z,12.15
2022-12-16T10:21:15.734Z,12.16
2022-12-16T10:24:20.811Z,12.25
2022-12-16T10:27:21.578Z,12.07
2022-12-16T10:30:06.769Z,12.12
2022-12-16T10:32:56.549Z,12.31
2022-12-16T10:35:46.791Z,12.26
2022-12-16T10:38:44.613Z,12.18
2022-12-16T10:41:32.468Z,12.28
2022-12-16T10:44:27.196Z,12.23
2022-12-16T10:47:12.484Z,12.15
2022-12-16T10:50:05.278Z,12.15
2022-12-16T10:52:50.162Z,12.13
2022-12-16T10:55:59.261Z,12.53
2022-12-16T10:58:48.749Z,12.58
2022-12-16T11:01:46.118Z,12.74
2022-12-16T11:04:55.960Z,12.87
2022-12-16T11:08:20.039Z,12.88
2022-12-16T11:11:05.613Z,12.92
2022-12-16T11:13:53.272Z,12.93
2022-12-16T11:16:44.449Z,12.99
2022-12-16T11:19:46.843Z,12.88
2022-12-16T11:22:33.636Z,12.91
2022-12-16T11:25:45.904Z,13.05
2022-12-16T11:28:37.156Z,12.82
2022-12-16T11:31:26.451Z,13.01
2022-12-16T11:34:14.603Z,12.89
2022-12-16T11:37:01.088Z,12.90
2022-12-16T11:39:51.620Z,13.00
2022-12-16T11:42:47.455Z,13.03
2022-12-16T11:45:39.217Z,13.22
2022-12-16T11:48:50.572Z,13.61
2022-12-16T11:51:37.856Z,13.68
2022-12-16T11:54:43.894Z,13.47
2022-12-16T11:58:00.776Z,13.46
2022-12-16T12:00:47.048Z,13.09
2022-12-16T12:03:41.256Z,13.40
2022-12-16T12:06:48.323Z,13.82
2022-12-16T12:09:40.076Z,13.59
2022-12-16T12:12:47.331Z,13.97
2022-12-16T12:16:00.092Z,14.11
2022-12-16T12:19:09.977Z,14.90
2022-12-16T12:22:07.665Z,15.90
2022-12-16T12:25:15.587Z,15.95
2022-12-16T12:28:11.792Z,15.64
2022-12-16T12:31:19.804Z,15.53
2022-12-16T12:34:08.098Z,15.38
2022-12-16T12:37:00.048Z,15.07
2022-12-16T12:40:06.401Z,14.59
2022-12-16T12:43:08.806Z,13.83
2022-12-16T12:46:16.565Z,13.38
2022-12-16T12:49:07.831Z,13.22
2022-12-16T12:52:01.280Z,13.03
2022-12-16T12:55:14.177Z,12.79
2022-12-16T12:58:01.828Z,12.67
2022-12-16T13:00:53.813Z,12.76
2022-12-16T13:04:21.318Z,13.49
2022-12-16T13:07:17.943Z,13.73
2022-12-16T13:10:03.475Z,14.23
2022-12-16T13:12:51.402Z,14.98
2022-12-16T13:15:39.046Z,14.48
2022-12-16T13:18:24.134Z,14.12
2022-12-16T13:21:15.723Z,13.56
2022-12-16T13:24:03.648Z,13.13
2022-12-16T13:26:51.452Z,12.91
2022-12-16T13:29:38.970Z,12.69
2022-12-16T13:32:37.911Z,12.52
2022-12-16T13:35:43.411Z,12.11
2022-12-16T13:38:48.852Z,12.23
2022-12-16T13:41:46.234Z,12.20
2022-12-16T13:44:51.833Z,12.08
2022-12-16T13:48:13.736Z,12.04
2022-12-16T13:51:08.081Z,11.83
2022-12-16T13:54:03.449Z,11.61
2022-12-16T13:57:06.751Z,11.68
2022-12-16T13:59:56.580Z,11.59
2022-12-16T14:02:41.864Z,11.64
2022-12-16T14:06:01.424Z,11.60
2022-12-16T14:08:56.979Z,11.53
2022-12-16T14:12:24.223Z,11.53
2022-12-16T14:15:18.588Z,11.49
2022-12-16T14:18:17.868Z,11.35
2022-12-16T14:21:14.553Z,11.35
2022-12-16T14:24:13.951Z,11.34
2022-12-16T14:26:59.035Z,11.13
2022-12-16T14:29:47.420Z,11.01
2022-12-16T14:32:52.970Z,11.09
2022-12-16T14:35:41.705Z,11.21
2022-12-16T14:38:45.528Z,11.04
2022-12-16T14:41:42.795Z,10.69
2022-12-16T14:44:43.093Z,10.69
2022-12-16T14:47:39.429Z,10.57
2022-12-16T14:50:45.805Z,10.52
2022-12-16T14:53:42.979Z,10.50
2022-12-16T14:56:39.494Z,10.37
2022-12-16T14:59:38.341Z,10.19
2022-12-16T15:02:43.958Z,10.16
2022-12-16T15:05:29.886Z,10.06
2022-12-16T15:08:15.225Z,9.86
2022-12-16T15:11:00.896Z,9.79
2022-12-16T15:13:46.992Z,10.07
2022-12-16T15:16:38.599Z,9.79
2022-12-16T15:19:24.359Z,9.78
2022-12-16T15:22:09.673Z,9.91
2022-12-16T15:24:57.551Z,10.01
2022-12-16T15:27:44.819Z,10.04
2022-12-16T15:31:00.399Z,10.03
2022-12-16T15:33:51.365Z,9.96
2022-12-16T15:36:47.835Z,9.94
2022-12-16T15:39:41.940Z,9.93
2022-12-16T15:42:43.365Z,9.93
2022-12-16T15:45:49.752Z,10.03
2022-12-16T15:48:58.484Z,9.94
2022-12-16T15:51:43.645Z,9.98
2022-12-16T15:54:40.465Z,9.73
2022-12-16T15:58:07.023Z,9.92
2022-12-16T16:00:52.010Z,9.81
2022-12-16T16:03:46.961Z,9.83
2022-12-16T16:06:35.159Z,9.76
2022-12-16T16:09:20.617Z,9.69
2022-12-16T16:12:19.382Z,9.52
2022-12-16T16:15:04.365Z,9.49
2022-12-16T16:17:49.409Z,9.58
2022-12-16T16:20:36.415Z,9.49
2022-12-16T16:23:22.140Z,9.64
2022-12-16T16:26:07.757Z,9.58
2022-12-16T16:28:54.054Z,9.41
2022-12-16T16:31:39.296Z,9.46
2022-12-16T16:34:24.896Z,9.32
2022-12-16T16:37:15.357Z,9.49
2022-12-16T16:40:01.640Z,9.56
2022-12-16T16:42:47.236Z,9.47
2022-12-16T16:45:32.679Z,9.40
2022-12-16T16:48:36.833Z,9.30
2022-12-16T16:51:22.909Z,9.20
2022-12-16T16:54:08.464Z,9.29
2022-12-16T16:56:55.718Z,9.15
2022-12-16T16:59:42.191Z,9.31
2022-12-16T17:02:40.803Z,9.34
2022-12-16T17:05:29.499Z,9.48
2022-12-16T17:08:15.740Z,9.56
2022-12-16T17:11:01.473Z,9.59
2022-12-16T17:13:46.746Z,9.43
2022-12-16T17:16:35.684Z,9.77
2022-12-16T17:19:26.686Z,9.71
2022-12-16T17:22:11.837Z,9.73
2022-12-16T17:24:57.439Z,9.77
2022-12-16T17:27:44.148Z,9.97
2022-12-16T17:30:47.342Z,9.95
2022-12-16T17:33:36.613Z,9.99
2022-12-16T17:36:25.038Z,9.80
2022-12-16T17:39:12.519Z,9.85
2022-12-16T17:41:57.386Z,9.99
2022-12-16T17:44:42.570Z,9.96
2022-12-16T17:47:27.650Z,10.00
2022-12-16T17:50:13.045Z,9.89
2022-12-16T17:52:58.116Z,9.93
2022-12-16T17:55:43.505Z,10.01
2022-12-16T17:58:42.708Z,10.20
2022-12-16T18:01:27.606Z,9.99
2022-12-16T18:04:13.293Z,9.94
2022-12-16T18:06:58.408Z,10.00
2022-12-16T18:09:43.384Z,9.82
2022-12-16T18:12:28.573Z,9.72
2022-12-16T18:15:13.707Z,9.78
2022-12-16T18:17:59.153Z,9.76
2022-12-16T18:20:44.550Z,9.81
2022-12-16T18:23:40.255Z,9.69
2022-12-16T18:26:27.521Z,9.80
2022-12-16T18:29:13.818Z,9.81
2022-12-16T18:31:59.121Z,9.72
2022-12-16T18:34:44.346Z,9.88
2022-12-16T18:37:31.597Z,9.96
2022-12-16T18:40:17.001Z,9.86
2022-12-16T18:43:03.251Z,9.81
2022-12-16T18:45:49.961Z,9.84
2022-12-16T18:48:34.936Z,9.88
2022-12-16T18:51:20.462Z,9.66
2022-12-16T18:54:05.924Z,9.79
2022-12-16T18:56:51.145Z,9.57
2022-12-16T18:59:36.472Z,9.69
2022-12-16T19:02:21.849Z,9.87
2022-12-16T19:05:07.172Z,9.69
2022-12-16T19:07:52.316Z,9.70
2022-12-16T19:10:37.274Z,9.57
2022-12-16T19:13:22.620Z,9.48
2022-12-16T19:16:15.931Z,9.35
2022-12-16T19:19:01.343Z,9.32
2022-12-16T19:21:51.839Z,9.31
2022-12-16T19:24:41.178Z,9.36
2022-12-16T19:27:26.346Z,9.29
2022-12-16T19:30:11.364Z,9.12
2022-12-16T19:32:56.949Z,9.27
2022-12-16T19:35:42.045Z,9.16
2022-12-16T19:38:31.818Z,9.24
2022-12-16T19:41:17.164Z,9.14
2022-12-16T19:47:09.454Z,9.16
2022-12-16T19:49:54.901Z,8.94
2022-12-16T19:52:41.388Z,8.85
2022-12-16T19:55:26.703Z,8.82
2022-12-16T19:58:11.931Z,8.71
2022-12-16T20:00:58.108Z,8.76
2022-12-16T20:03:43.701Z,8.68
2022-12-16T20:06:29.931Z,8.89
2022-12-16T20:09:15.579Z,8.81
2022-12-16T20:12:01.282Z,9.02
2022-12-16T20:14:47.484Z,8.96
2022-12-16T20:17:43.701Z,8.88
2022-12-16T20:20:29.077Z,8.69
2022-12-16T20:23:14.920Z,8.85
2022-12-16T20:25:59.989Z,8.68
2022-12-16T20:28:45.041Z,8.60
2022-12-16T20:31:30.568Z,8.61
2022-12-16T20:34:15.736Z,8.53
2022-12-16T20:37:01.462Z,8.77
2022-12-16T20:39:52.871Z,8.63
2022-12-16T20:42:53.551Z,8.65
2022-12-16T20:45:39.492Z,8.63
2022-12-16T20:48:24.634Z,8.67
2022-12-16T20:51:24.270Z,8.57
2022-12-16T20:54:11.394Z,8.50
2022-12-16T20:56:56.574Z,8.53
2022-12-16T20:59:42.303Z,8.55
2022-12-16T21:02:50.646Z,8.77
2022-12-16T21:05:35.850Z,8.50
2022-12-16T21:08:21.280Z,8.65
2022-12-16T21:11:06.515Z,8.39
2022-12-16T21:13:51.778Z,8.55
2022-12-16T21:14:28.376Z,9.08
2022-12-16T21:16:37.558Z,8.54
2022-12-16T21:19:24.601Z,8.32
2022-12-16T21:22:12.632Z,8.34
2022-12-16T21:24:58.015Z,8.36
2022-12-16T21:27:43.122Z,8.32
2022-12-16T21:30:28.573Z,8.32
2022-12-16T21:33:13.795Z,8.28
2022-12-16T21:35:59.014Z,8.34
2022-12-16T21:38:44.397Z,8.50
2022-12-16T21:41:29.493Z,8.29
2022-12-16T21:44:14.686Z,8.40
2022-12-16T21:47:00.751Z,8.36
2022-12-16T21:49:45.755Z,8.20
2022-12-16T21:52:30.831Z,8.41
2022-12-16T21:55:16.869Z,8.23
2022-12-16T21:58:02.179Z,8.35
2022-12-16T22:00:47.442Z,8.37
2022-12-16T22:03:32.883Z,8.17
2022-12-16T22:06:18.365Z,8.25
2022-12-16T22:09:03.882Z,8.30
2022-12-16T22:11:49.103Z,8.12
2022-12-16T22:14:34.302Z,8.09
2022-12-16T22:17:27.164Z,8.11
2022-12-16T22:20:12.159Z,8.16
2022-12-16T22:22:57.121Z,8.06
2022-12-16T22:25:42.197Z,7.98
2022-12-16T22:28:27.342Z,8.28
2022-12-16T22:31:16.156Z,8.36
2022-12-16T22:34:01.608Z,8.05
2022-12-16T22:36:46.855Z,8.14
2022-12-16T22:39:44.552Z,7.90
2022-12-16T22:42:29.767Z,8.23
2022-12-16T22:45:15.202Z,8.22
2022-12-16T22:48:00.242Z,8.24
2022-12-16T22:50:45.245Z,8.12
2022-12-16T22:53:32.794Z,8.27
2022-12-16T22:56:17.954Z,8.18
2022-12-16T22:59:02.939Z,8.00
2022-12-16T23:01:48.164Z,8.03
2022-12-16T23:04:33.260Z,7.95
2022-12-16T23:07:18.666Z,8.02
2022-12-16T23:10:03.689Z,7.89
2022-12-16T23:12:49.276Z,8.13
2022-12-16T23:15:34.669Z,7.94
2022-12-16T23:18:19.811Z,7.90
2022-12-16T23:21:06.144Z,7.94
2022-12-16T23:23:51.108Z,7.96
2022-12-16T23:26:37.531Z,7.75
2022-12-16T23:29:23.190Z,7.83
2022-12-16T23:32:08.351Z,7.92
2022-12-16T23:34:55.064Z,7.84
2022-12-16T23:37:40.724Z,7.85
2022-12-16T23:40:26.358Z,7.86
2022-12-16T23:43:13.026Z,7.99
2022-12-16T23:45:58.594Z,7.75
2022-12-16T23:48:43.855Z,7.62
2022-12-16T23:51:28.959Z,7.81
2022-12-16T23:54:14.112Z,7.85
2022-12-16T23:56:59.302Z,7.84
2022-12-16T23:59:44.375Z,7.85
